Time;durP1;ratioP1;P1;durP2;ratioP2;P2;SDS_P1;SDS_P2;PMS_P1;PMS_P2;Temp;Humidity;BMP_temperature;BMP_pressure;BME280_temperature;BME280_humidity;BME280_pressure;Samples;Min_cycle;Max_cycle;Signal;HPM_P1;HPM_P2
2023/05/03 00:02:12;;;;;;;16.00;7.50;;;;;;;;;;5035257;28;20177;-44
2023/05/03 00:04:40;;;;;;;14.43;8.50;;;;;;;;;;5035331;28;20423;-46
2023/05/03 00:07:06;;;;;;;16.10;9.30;;;;;;;;;;5035288;28;20188;-45
2023/05/03 00:09:35;;;;;;;16.33;7.90;;;;;;;;;;5034912;28;20176;-44
2023/05/03 00:12:01;;;;;;;13.50;8.70;;;;;;;;;;5035077;28;20407;-45
2023/05/03 00:14:27;;;;;;;12.13;8.20;;;;;;;;;;5035478;28;20852;-44
2023/05/03 00:16:53;;;;;;;8.02;7.05;;;;;;;;;;5035296;28;20188;-46
2023/05/03 00:19:20;;;;;;;9.10;7.10;;;;;;;;;;5034809;28;20184;-46
2023/05/03 00:21:46;;;;;;;10.27;7.07;;;;;;;;;;5034990;28;20402;-44
2023/05/03 00:24:12;;;;;;;12.53;8.70;;;;;;;;;;5034252;28;20283;-46
2023/05/03 00:26:37;;;;;;;10.77;6.60;;;;;;;;;;5038457;28;20418;-45
2023/05/03 00:29:03;;;;;;;11.77;8.00;;;;;;;;;;5036223;28;20790;-44
2023/05/03 00:31:29;;;;;;;15.03;7.83;;;;;;;;;;5029657;28;20775;-44
2023/05/03 00:33:55;;;;;;;13.43;8.13;;;;;;;;;;5034173;28;20504;-43
2023/05/03 00:36:21;;;;;;;14.53;7.60;;;;;;;;;;5034258;28;20410;-45
2023/05/03 00:38:47;;;;;;;14.30;7.87;;;;;;;;;;5034561;28;20415;-46
2023/05/03 00:41:13;;;;;;;11.20;8.23;;;;;;;;;;5034479;28;20438;-45
2023/05/03 00:43:39;;;;;;;10.87;8.03;;;;;;;;;;5034039;28;20435;-45
2023/05/03 00:46:06;;;;;;;16.53;8.17;;;;;;;;;;5029232;28;20971;-46
2023/05/03 00:48:33;;;;;;;10.65;7.88;;;;;;;;;;5034125;28;20414;-45
2023/05/03 00:50:59;;;;;;;12.25;7.47;;;;;;;;;;5034187;28;20266;-44
2023/05/03 00:53:26;;;;;;;9.30;6.93;;;;;;;;;;5033649;28;20286;-46
2023/05/03 00:55:52;;;;;;;11.25;8.18;;;;;;;;;;5033860;28;20258;-45
2023/05/03 00:58:19;;;;;;;15.32;9.43;;;;;;;;;;5033915;28;20647;-44
2023/05/03 01:00:45;;;;;;;17.20;11.60;;;;;;;;;;5032054;28;20180;-44
2023/05/03 01:03:11;;;;;;;15.83;8.50;;;;;;;;;;5026378;28;20197;-44
2023/05/03 01:05:43;;;;;;;14.15;10.05;;;;;;;;;;5033319;28;20423;-44
2023/05/03 01:08:20;;;;;;;12.52;8.13;;;;;;;;;;5033769;28;20206;-44
2023/05/03 01:11:00;;;;;;;21.02;10.07;;;;;;;;;;5033628;28;20210;-44
2023/05/03 01:13:53;;;;;;;17.80;8.52;;;;;;;;;;5033354;28;20231;-44
2023/05/03 01:16:34;;;;;;;12.32;9.07;;;;;;;;;;5033674;28;20254;-44
2023/05/03 01:19:04;;;;;;;13.95;8.30;;;;;;;;;;5033834;28;20563;-44
2023/05/03 01:21:32;;;;;;;11.45;8.55;;;;;;;;;;5033544;28;20171;-44
2023/05/03 01:23:58;;;;;;;14.90;8.93;;;;;;;;;;5033212;28;20196;-44
2023/05/03 01:26:25;;;;;;;12.80;8.70;;;;;;;;;;5033433;28;20175;-44
2023/05/03 01:28:51;;;;;;;13.60;9.40;;;;;;;;;;5049246;28;20491;-44
2023/05/03 01:31:40;;;;;;;10.25;7.95;;;;;;;;;;5053368;28;20217;-45
2023/05/03 01:34:28;;;;;;;11.27;8.32;;;;;;;;;;5053046;28;20690;-44
2023/05/03 01:36:57;;;;;;;12.93;9.43;;;;;;;;;;5053273;28;20163;-46
2023/05/03 01:39:25;;;;;;;10.05;8.25;;;;;;;;;;5053250;28;20174;-45
2023/05/03 01:41:51;;;;;;;13.73;8.77;;;;;;;;;;5053087;28;20175;-46
2023/05/03 01:44:17;;;;;;;9.32;7.40;;;;;;;;;;5052942;28;20210;-45
2023/05/03 01:46:44;;;;;;;10.90;7.88;;;;;;;;;;5053022;28;20178;-44
2023/05/03 01:49:10;;;;;;;14.98;9.05;;;;;;;;;;5053363;28;20622;-44
2023/05/03 01:51:36;;;;;;;12.60;8.50;;;;;;;;;;5053196;28;20588;-44
2023/05/03 01:54:02;;;;;;;18.40;8.15;;;;;;;;;;5052554;28;20765;-45
2023/05/03 01:56:29;;;;;;;21.47;7.90;;;;;;;;;;5038450;28;20266;-44
2023/05/03 01:58:55;;;;;;;21.15;9.32;;;;;;;;;;5033171;28;20510;-44
2023/05/03 02:01:21;;;;;;;12.07;8.43;;;;;;;;;;5037560;28;20258;-44
2023/05/03 02:03:47;;;;;;;12.20;8.43;;;;;;;;;;5030204;28;20426;-44
2023/05/03 02:06:13;;;;;;;10.37;7.80;;;;;;;;;;5032388;28;20438;-44
2023/05/03 02:08:39;;;;;;;10.77;8.90;;;;;;;;;;5032288;28;20446;-44
2023/05/03 02:11:05;;;;;;;12.68;11.43;;;;;;;;;;5031735;28;20906;-44
2023/05/03 02:13:31;;;;;;;15.87;11.80;;;;;;;;;;5031887;28;20207;-44
2023/05/03 02:15:57;;;;;;;12.57;8.60;;;;;;;;;;5032219;28;20929;-44
2023/05/03 02:18:23;;;;;;;11.87;7.83;;;;;;;;;;5031465;28;20427;-44
2023/05/03 02:20:49;;;;;;;13.88;9.00;;;;;;;;;;5032285;28;20403;-44
2023/05/03 02:23:15;;;;;;;13.60;10.07;;;;;;;;;;5032111;28;20192;-44
2023/05/03 02:25:41;;;;;;;17.20;9.50;;;;;;;;;;5032249;28;20436;-45
2023/05/03 02:28:07;;;;;;;22.23;10.05;;;;;;;;;;5032059;28;20603;-44
2023/05/03 02:30:34;;;;;;;16.20;9.57;;;;;;;;;;5031724;28;20188;-44
2023/05/03 02:33:01;;;;;;;13.02;9.05;;;;;;;;;;5031678;28;20497;-44
2023/05/03 02:35:27;;;;;;;13.82;9.48;;;;;;;;;;5032029;28;20172;-44
2023/05/03 02:37:53;;;;;;;11.43;8.43;;;;;;;;;;5031957;28;20206;-44
2023/05/03 02:40:19;;;;;;;15.30;9.70;;;;;;;;;;5031804;28;20486;-44
2023/05/03 02:42:45;;;;;;;13.20;8.55;;;;;;;;;;5031661;28;20504;-44
2023/05/03 02:45:11;;;;;;;11.20;7.63;;;;;;;;;;5031452;28;20214;-44
2023/05/03 02:47:37;;;;;;;13.40;9.35;;;;;;;;;;5031857;28;20589;-44
2023/05/03 02:50:03;;;;;;;12.33;9.67;;;;;;;;;;5033464;28;20563;-44
2023/05/03 02:52:29;;;;;;;17.02;11.07;;;;;;;;;;5031612;28;20523;-44
2023/05/03 02:54:55;;;;;;;14.23;10.00;;;;;;;;;;5031763;28;20178;-44
2023/05/03 02:57:21;;;;;;;8.97;6.80;;;;;;;;;;5031340;28;20532;-44
2023/05/03 02:59:47;;;;;;;13.10;9.70;;;;;;;;;;5031760;28;20399;-44
2023/05/03 03:02:13;;;;;;;13.23;8.13;;;;;;;;;;5031660;28;20541;-45
2023/05/03 03:04:39;;;;;;;12.63;8.20;;;;;;;;;;5031459;28;20195;-44
2023/05/03 03:07:05;;;;;;;10.85;8.50;;;;;;;;;;5031476;28;20818;-44
2023/05/03 03:09:31;;;;;;;19.95;9.85;;;;;;;;;;5031467;28;20263;-43
2023/05/03 03:11:57;;;;;;;9.77;7.60;;;;;;;;;;5031008;28;20287;-44
2023/05/03 03:14:23;;;;;;;12.30;7.80;;;;;;;;;;5031651;28;20430;-44
2023/05/03 03:16:50;;;;;;;16.00;9.67;;;;;;;;;;5031374;28;20409;-44
2023/05/03 03:19:16;;;;;;;12.13;9.27;;;;;;;;;;5031486;28;20458;-44
2023/05/03 03:21:42;;;;;;;20.55;11.38;;;;;;;;;;5032639;28;20595;-44
2023/05/03 03:24:08;;;;;;;16.43;8.93;;;;;;;;;;5034318;28;20242;-44
2023/05/03 03:26:34;;;;;;;10.63;6.97;;;;;;;;;;5035241;28;20410;-44
2023/05/03 03:29:00;;;;;;;13.00;9.47;;;;;;;;;;5035403;28;20627;-44
2023/05/03 03:31:26;;;;;;;15.20;11.48;;;;;;;;;;5035405;28;20406;-44
2023/05/03 03:33:52;;;;;;;16.60;9.97;;;;;;;;;;5035382;28;20616;-44
2023/05/03 03:36:18;;;;;;;20.83;10.83;;;;;;;;;;5035291;28;20418;-44
2023/05/03 03:38:44;;;;;;;19.07;9.80;;;;;;;;;;5035210;28;20449;-44
2023/05/03 03:41:10;;;;;;;16.60;9.50;;;;;;;;;;5035159;28;20485;-44
2023/05/03 03:43:36;;;;;;;17.05;10.68;;;;;;;;;;5035085;28;20430;-44
2023/05/03 03:46:02;;;;;;;18.80;10.60;;;;;;;;;;5035242;28;20189;-44
2023/05/03 03:48:28;;;;;;;18.13;9.37;;;;;;;;;;5035126;28;20417;-44
2023/05/03 03:50:55;;;;;;;16.33;10.13;;;;;;;;;;5031522;28;20423;-43
2023/05/03 03:53:21;;;;;;;18.40;10.05;;;;;;;;;;5034577;28;20462;-44
2023/05/03 03:55:47;;;;;;;15.63;10.80;;;;;;;;;;5034945;28;20217;-44
2023/05/03 03:58:13;;;;;;;18.53;9.53;;;;;;;;;;5037893;28;21043;-44
2023/05/03 04:00:39;;;;;;;18.57;10.67;;;;;;;;;;5034998;28;20452;-44
2023/05/03 04:03:05;;;;;;;16.90;11.00;;;;;;;;;;5034472;28;20528;-46
2023/05/03 04:05:31;;;;;;;14.45;9.30;;;;;;;;;;5034661;28;20227;-44
2023/05/03 04:07:57;;;;;;;13.75;10.27;;;;;;;;;;5034362;28;20175;-44
2023/05/03 04:10:23;;;;;;;13.05;8.80;;;;;;;;;;5034567;28;20223;-45
2023/05/03 04:12:49;;;;;;;17.60;10.70;;;;;;;;;;5034200;28;20258;-44
2023/05/03 04:15:15;;;;;;;14.50;10.10;;;;;;;;;;5034968;28;20476;-44
2023/05/03 04:17:41;;;;;;;15.43;10.67;;;;;;;;;;5034512;28;20218;-44
2023/05/03 04:20:09;;;;;;;22.48;11.27;;;;;;;;;;5035899;28;21022;-44
2023/05/03 04:22:36;;;;;;;19.23;12.48;;;;;;;;;;5039911;28;20171;-44
2023/05/03 04:25:02;;;;;;;16.25;10.27;;;;;;;;;;5032689;28;20171;-44
2023/05/03 04:27:28;;;;;;;14.18;10.45;;;;;;;;;;5034504;28;20182;-44
2023/05/03 04:29:55;;;;;;;17.02;11.63;;;;;;;;;;5034186;28;20175;-44
2023/05/03 04:32:22;;;;;;;15.95;9.25;;;;;;;;;;5034572;28;20294;-44
2023/05/03 04:34:50;;;;;;;18.17;11.20;;;;;;;;;;5033913;28;20191;-44
2023/05/03 04:37:16;;;;;;;16.25;10.35;;;;;;;;;;5026394;28;20634;-44
2023/05/03 04:39:42;;;;;;;20.50;12.40;;;;;;;;;;5032544;28;20226;-44
2023/05/03 04:42:09;;;;;;;16.45;10.80;;;;;;;;;;5034220;28;20184;-46
2023/05/03 04:44:35;;;;;;;17.88;10.57;;;;;;;;;;5034073;28;20195;-45
2023/05/03 04:47:01;;;;;;;15.60;10.65;;;;;;;;;;5034116;28;20203;-45
2023/05/03 04:49:27;;;;;;;19.45;11.05;;;;;;;;;;5034145;28;20164;-44
2023/05/03 04:51:54;;;;;;;19.98;10.13;;;;;;;;;;5042880;28;20174;-45
2023/05/03 04:54:20;;;;;;;25.58;12.98;;;;;;;;;;5054023;28;20737;-44
2023/05/03 04:56:46;;;;;;;149.70;69.60;;;;;;;;;;5053938;28;20756;-45
2023/05/03 04:59:12;;;;;;;31.20;19.02;;;;;;;;;;5053933;28;20651;-44
2023/05/03 05:01:38;;;;;;;14.90;10.27;;;;;;;;;;5053836;28;20170;-44
2023/05/03 05:04:04;;;;;;;16.40;10.30;;;;;;;;;;5053627;28;20895;-44
2023/05/03 05:06:30;;;;;;;14.90;10.90;;;;;;;;;;5053670;28;20182;-45
2023/05/03 05:08:56;;;;;;;15.13;10.53;;;;;;;;;;5054019;28;20300;-44
2023/05/03 05:11:22;;;;;;;21.13;10.10;;;;;;;;;;5053872;28;20758;-44
2023/05/03 05:13:48;;;;;;;21.02;10.98;;;;;;;;;;5053460;28;20514;-44
2023/05/03 05:16:14;;;;;;;18.90;12.50;;;;;;;;;;5053719;28;20627;-44
2023/05/03 05:18:40;;;;;;;17.37;11.40;;;;;;;;;;5054158;28;20421;-45
2023/05/03 05:21:06;;;;;;;21.20;13.13;;;;;;;;;;5049095;28;20462;-44
2023/05/03 05:23:32;;;;;;;19.77;11.50;;;;;;;;;;5053180;28;20422;-44
2023/05/03 05:25:59;;;;;;;17.50;10.23;;;;;;;;;;5052380;28;20421;-44
2023/05/03 05:28:26;;;;;;;16.25;11.20;;;;;;;;;;5053916;28;20394;-44
2023/05/03 05:30:52;;;;;;;19.10;11.25;;;;;;;;;;5053746;28;20246;-44
2023/05/03 05:33:18;;;;;;;30.47;17.00;;;;;;;;;;5053051;28;20285;-44
2023/05/03 05:35:45;;;;;;;17.20;11.00;;;;;;;;;;5053347;28;20401;-43
2023/05/03 05:38:11;;;;;;;17.13;11.48;;;;;;;;;;5053092;28;20770;-44
2023/05/03 05:40:37;;;;;;;19.23;11.80;;;;;;;;;;5053601;28;20162;-45
2023/05/03 05:43:03;;;;;;;16.98;10.80;;;;;;;;;;5053502;28;20191;-44
2023/05/03 05:45:29;;;;;;;24.33;11.93;;;;;;;;;;5053701;28;20646;-46
2023/05/03 05:47:55;;;;;;;16.40;11.00;;;;;;;;;;5053754;28;20737;-44
2023/05/03 05:50:21;;;;;;;17.88;11.57;;;;;;;;;;5054510;28;20246;-44
2023/05/03 05:52:51;;;;;;;17.00;11.55;;;;;;;;;;5049692;28;20217;-45
2023/05/03 05:55:17;;;;;;;15.20;10.95;;;;;;;;;;5052586;28;20179;-44
2023/05/03 05:57:43;;;;;;;15.18;11.00;;;;;;;;;;5054687;28;20175;-45
2023/05/03 06:00:13;;;;;;;15.93;10.87;;;;;;;;;;5054079;28;20268;-44
2023/05/03 06:02:43;;;;;;;23.63;13.73;;;;;;;;;;5052998;28;20430;-44
2023/05/03 06:05:09;;;;;;;14.27;10.68;;;;;;;;;;5053625;28;20163;-44
2023/05/03 06:07:35;;;;;;;20.20;10.25;;;;;;;;;;5053488;28;20175;-44
2023/05/03 06:10:02;;;;;;;16.40;11.35;;;;;;;;;;5054020;28;20534;-46
2023/05/03 06:12:28;;;;;;;19.15;13.00;;;;;;;;;;5053444;28;20563;-46
2023/05/03 06:14:54;;;;;;;17.17;10.87;;;;;;;;;;5054072;28;20171;-46
2023/05/03 06:17:25;;;;;;;18.30;10.90;;;;;;;;;;5054271;28;20394;-43
2023/05/03 06:19:51;;;;;;;13.77;10.40;;;;;;;;;;5053434;28;20397;-44
2023/05/03 06:22:17;;;;;;;16.63;13.50;;;;;;;;;;5050043;28;20757;-44
2023/05/03 06:24:42;;;;;;;13.07;9.30;;;;;;;;;;5051883;28;20200;-46
2023/05/03 06:27:08;;;;;;;17.03;9.07;;;;;;;;;;5053996;28;20406;-44
2023/05/03 06:29:34;;;;;;;17.80;10.30;;;;;;;;;;5053585;28;20488;-44
2023/05/03 06:32:00;;;;;;;30.83;21.90;;;;;;;;;;5048098;28;20528;-44
2023/05/03 06:34:26;;;;;;;17.20;9.47;;;;;;;;;;5034159;28;20919;-46
2023/05/03 06:36:52;;;;;;;15.13;9.33;;;;;;;;;;5033417;28;20406;-46
2023/05/03 06:39:18;;;;;;;14.50;9.70;;;;;;;;;;5034100;28;20404;-44
2023/05/03 06:41:45;;;;;;;16.43;9.63;;;;;;;;;;5033626;28;20487;-44
2023/05/03 06:44:11;;;;;;;15.97;10.00;;;;;;;;;;5033206;28;20436;-46
2023/05/03 06:46:37;;;;;;;13.57;9.20;;;;;;;;;;5033456;28;20412;-44
2023/05/03 06:49:03;;;;;;;14.13;9.50;;;;;;;;;;5033861;28;20440;-44
2023/05/03 06:51:35;;;;;;;18.00;9.67;;;;;;;;;;5033115;28;20417;-44
2023/05/03 06:54:05;;;;;;;15.03;8.57;;;;;;;;;;5045535;28;20476;-46
2023/05/03 06:56:32;;;;;;;19.63;8.83;;;;;;;;;;5040163;28;20846;-44
2023/05/03 06:59:00;;;;;;;12.07;8.63;;;;;;;;;;5054103;28;20919;-46
2023/05/03 07:01:26;;;;;;;10.37;8.53;;;;;;;;;;5054203;28;20403;-44
2023/05/03 07:03:51;;;;;;;13.27;9.33;;;;;;;;;;5053408;28;20435;-44
2023/05/03 07:06:18;;;;;;;10.97;8.57;;;;;;;;;;5052866;28;20437;-44
2023/05/03 07:08:44;;;;;;;14.23;8.40;;;;;;;;;;5049830;28;20434;-44
2023/05/03 07:11:10;;;;;;;13.37;7.43;;;;;;;;;;5052138;28;20893;-45
2023/05/03 07:13:36;;;;;;;17.37;9.33;;;;;;;;;;5046586;28;20822;-45
2023/05/03 07:16:02;;;;;;;11.30;8.80;;;;;;;;;;5032524;28;20456;-45
2023/05/03 07:18:28;;;;;;;18.80;8.70;;;;;;;;;;5031918;28;20460;-44
2023/05/03 07:20:55;;;;;;;18.80;10.40;;;;;;;;;;5030863;28;20480;-44
2023/05/03 07:23:21;;;;;;;12.87;8.53;;;;;;;;;;5031816;28;20933;-45
2023/05/03 07:25:47;;;;;;;15.03;9.33;;;;;;;;;;5032584;28;20802;-44
2023/05/03 07:28:13;;;;;;;11.17;9.20;;;;;;;;;;5032240;28;21001;-44
2023/05/03 07:31:07;;;;;;;10.93;7.80;;;;;;;;;;5032499;28;20454;-45
2023/05/03 07:33:34;;;;;;;11.90;9.33;;;;;;;;;;5027398;28;20882;-45
2023/05/03 07:36:00;;;;;;;16.90;11.00;;;;;;;;;;5032994;28;20414;-44
2023/05/03 07:38:26;;;;;;;13.97;8.87;;;;;;;;;;5033305;28;20720;-44
2023/05/03 07:40:52;;;;;;;9.67;8.63;;;;;;;;;;5040589;28;20940;-45
2023/05/03 07:43:20;;;;;;;10.80;8.67;;;;;;;;;;5034980;28;20440;-45
2023/05/03 07:45:46;;;;;;;14.50;8.57;;;;;;;;;;5032761;28;20413;-45
2023/05/03 07:48:11;;;;;;;10.77;9.57;;;;;;;;;;5028958;28;20410;-46
2023/05/03 07:50:37;;;;;;;12.33;11.13;;;;;;;;;;5037121;28;20406;-45
2023/05/03 07:53:04;;;;;;;38.83;35.33;;;;;;;;;;5023604;28;20469;-44
2023/05/03 07:55:31;;;;;;;31.33;28.93;;;;;;;;;;5030313;28;20381;-45
2023/05/03 07:57:58;;;;;;;11.53;10.40;;;;;;;;;;5030137;28;20898;-47
2023/05/03 08:00:25;;;;;;;15.17;11.00;;;;;;;;;;5030083;28;20913;-44
2023/05/03 08:02:51;;;;;;;13.10;9.30;;;;;;;;;;5027539;28;20781;-45
2023/05/03 08:05:17;;;;;;;9.97;7.63;;;;;;;;;;5025904;28;20404;-47
2023/05/03 08:07:43;;;;;;;6.97;5.27;;;;;;;;;;5032031;28;20436;-46
2023/05/03 08:10:09;;;;;;;7.00;5.07;;;;;;;;;;5033463;28;20424;-45
2023/05/03 08:12:35;;;;;;;13.63;6.43;;;;;;;;;;5033569;28;20468;-44
2023/05/03 08:15:05;;;;;;;5.30;4.77;;;;;;;;;;5034880;28;20415;-44
2023/05/03 08:17:32;;;;;;;6.53;5.00;;;;;;;;;;5035000;28;20394;-45
2023/05/03 08:19:57;;;;;;;9.90;5.50;;;;;;;;;;5034227;28;20472;-46
2023/05/03 08:22:25;;;;;;;7.13;6.00;;;;;;;;;;5028454;28;20445;-44
2023/05/03 08:24:52;;;;;;;6.40;5.77;;;;;;;;;;5035095;28;20413;-46
2023/05/03 08:27:18;;;;;;;10.77;5.03;;;;;;;;;;5033339;28;20506;-47
2023/05/03 08:29:44;;;;;;;8.13;6.27;;;;;;;;;;5030268;28;20422;-46
2023/05/03 08:32:10;;;;;;;9.30;6.13;;;;;;;;;;5034899;28;20472;-48
2023/05/03 08:34:36;;;;;;;5.03;4.53;;;;;;;;;;5034338;28;20434;-46
2023/05/03 08:37:04;;;;;;;6.13;5.37;;;;;;;;;;5033822;28;20493;-45
2023/05/03 08:39:30;;;;;;;7.63;6.37;;;;;;;;;;5035229;28;20807;-46
2023/05/03 08:41:57;;;;;;;9.23;7.50;;;;;;;;;;5049919;28;20428;-46
2023/05/03 08:44:24;;;;;;;7.63;5.43;;;;;;;;;;5054451;28;20421;-47
2023/05/03 08:46:50;;;;;;;10.67;5.83;;;;;;;;;;5054126;28;20402;-45
2023/05/03 08:49:17;;;;;;;4.57;4.13;;;;;;;;;;5054379;28;20405;-46
2023/05/03 08:51:46;;;;;;;7.37;4.83;;;;;;;;;;5054172;28;20412;-46
2023/05/03 08:54:13;;;;;;;10.93;7.03;;;;;;;;;;5053748;28;20831;-46
2023/05/03 08:56:40;;;;;;;6.93;5.20;;;;;;;;;;5054079;28;20885;-45
2023/05/03 08:59:07;;;;;;;7.33;4.67;;;;;;;;;;5053969;28;20404;-47
2023/05/03 09:01:34;;;;;;;5.13;4.60;;;;;;;;;;5050218;28;20468;-47
2023/05/03 09:04:00;;;;;;;8.57;5.13;;;;;;;;;;5036130;28;20441;-46
2023/05/03 09:06:27;;;;;;;5.53;4.97;;;;;;;;;;5035043;28;20441;-46
2023/05/03 09:08:53;;;;;;;7.70;6.00;;;;;;;;;;5051050;28;20800;-47
2023/05/03 09:11:20;;;;;;;7.97;5.60;;;;;;;;;;5052894;28;20432;-47
2023/05/03 09:13:46;;;;;;;8.10;5.40;;;;;;;;;;5051329;28;20457;-46
2023/05/03 09:16:21;;;;;;;5.57;4.80;;;;;;;;;;5053266;28;20467;-47
2023/05/03 09:19:05;;;;;;;7.10;4.20;;;;;;;;;;5032153;28;20494;-46
2023/05/03 09:21:31;;;;;;;7.77;5.30;;;;;;;;;;5032630;28;20429;-46
2023/05/03 09:23:58;;;;;;;4.80;4.10;;;;;;;;;;5033326;28;20422;-47
2023/05/03 09:26:34;;;;;;;8.23;5.00;;;;;;;;;;5033515;28;20414;-45
2023/05/03 09:29:01;;;;;;;5.30;3.73;;;;;;;;;;5033433;28;20464;-47
2023/05/03 09:31:28;;;;;;;9.73;4.27;;;;;;;;;;5033466;28;20394;-48
2023/05/03 09:33:54;;;;;;;4.27;3.73;;;;;;;;;;5033062;28;20819;-47
2023/05/03 09:36:20;;;;;;;9.90;6.63;;;;;;;;;;5033365;28;20394;-46
2023/05/03 09:38:46;;;;;;;6.63;4.13;;;;;;;;;;5053510;28;20406;-47
2023/05/03 09:41:12;;;;;;;6.50;4.50;;;;;;;;;;5052458;28;20429;-46
2023/05/03 09:43:48;;;;;;;6.90;4.60;;;;;;;;;;5053198;28;20452;-47
2023/05/03 09:46:14;;;;;;;8.67;3.80;;;;;;;;;;5053192;28;20393;-47
2023/05/03 09:48:41;;;;;;;4.47;4.00;;;;;;;;;;5053151;28;20512;-45
2023/05/03 09:51:07;;;;;;;6.13;3.87;;;;;;;;;;5053319;28;20462;-46
2023/05/03 09:53:33;;;;;;;5.03;3.27;;;;;;;;;;5052683;28;20461;-46
2023/05/03 09:56:01;;;;;;;5.33;4.43;;;;;;;;;;5053321;28;20405;-46
2023/05/03 09:58:29;;;;;;;4.80;3.70;;;;;;;;;;5052967;28;20393;-46
2023/05/03 10:00:56;;;;;;;4.67;4.20;;;;;;;;;;5053055;28;20771;-45
2023/05/03 10:03:25;;;;;;;10.10;4.80;;;;;;;;;;5052654;28;20421;-47
2023/05/03 10:05:51;;;;;;;6.30;4.60;;;;;;;;;;5051761;28;20497;-46
2023/05/03 10:08:17;;;;;;;4.43;3.90;;;;;;;;;;5052880;28;20897;-44
2023/05/03 10:10:44;;;;;;;6.60;3.60;;;;;;;;;;5049324;28;20426;-46
2023/05/03 10:13:11;;;;;;;4.47;3.47;;;;;;;;;;5052532;28;20464;-45
2023/05/03 10:15:38;;;;;;;9.97;4.87;;;;;;;;;;5052617;28;20397;-47
2023/05/03 10:18:07;;;;;;;6.60;4.23;;;;;;;;;;5052966;28;20397;-47
2023/05/03 10:20:35;;;;;;;3.20;2.90;;;;;;;;;;5052487;28;20484;-47
2023/05/03 10:23:04;;;;;;;5.30;3.80;;;;;;;;;;5052473;28;20428;-45
2023/05/03 10:25:30;;;;;;;8.37;4.33;;;;;;;;;;5052719;28;20409;-46
2023/05/03 10:28:03;;;;;;;5.80;3.80;;;;;;;;;;5052965;28;20811;-47
2023/05/03 10:30:33;;;;;;;4.93;4.00;;;;;;;;;;5052627;28;20905;-45
2023/05/03 10:33:11;;;;;;;4.93;4.13;;;;;;;;;;5049815;28;20468;-47
2023/05/03 10:35:41;;;;;;;6.90;4.50;;;;;;;;;;5052375;28;20467;-47
2023/05/03 10:38:14;;;;;;;5.57;4.23;;;;;;;;;;5052635;28;20924;-48
2023/05/03 10:40:45;;;;;;;5.17;4.60;;;;;;;;;;5052557;28;20389;-45
2023/05/03 10:43:31;;;;;;;4.77;3.97;;;;;;;;;;5052703;28;20456;-48
2023/05/03 10:46:03;;;;;;;7.27;4.47;;;;;;;;;;5051989;28;20803;-45
2023/05/03 10:48:29;;;;;;;5.43;4.37;;;;;;;;;;5052148;28;20401;-45
2023/05/03 10:50:56;;;;;;;5.60;3.57;;;;;;;;;;5052003;28;20402;-46
2023/05/03 10:53:32;;;;;;;6.13;4.90;;;;;;;;;;5046987;28;21035;-47
2023/05/03 10:56:07;;;;;;;9.10;4.47;;;;;;;;;;5032929;28;20433;-47
2023/05/03 10:58:35;;;;;;;5.80;3.90;;;;;;;;;;5031932;28;20410;-48
2023/05/03 11:01:02;;;;;;;6.27;5.63;;;;;;;;;;5030576;28;20868;-46
2023/05/03 11:03:28;;;;;;;7.80;4.23;;;;;;;;;;5048873;28;20831;-46
2023/05/03 11:05:56;;;;;;;9.90;5.70;;;;;;;;;;5050376;28;20857;-46
2023/05/03 11:08:24;;;;;;;8.70;5.70;;;;;;;;;;5050473;28;20277;-45
2023/05/03 11:10:56;;;;;;;6.70;4.60;;;;;;;;;;5051532;28;20408;-46
2023/05/03 11:13:22;;;;;;;6.67;5.03;;;;;;;;;;5050923;28;20514;-47
2023/05/03 11:15:48;;;;;;;6.30;4.40;;;;;;;;;;5051438;28;20406;-46
2023/05/03 11:18:14;;;;;;;4.83;3.67;;;;;;;;;;5051985;28;20409;-45
2023/05/03 11:20:40;;;;;;;8.53;4.20;;;;;;;;;;5052224;28;20497;-46
2023/05/03 11:23:07;;;;;;;6.17;4.33;;;;;;;;;;5051378;28;20515;-46
2023/05/03 11:25:33;;;;;;;4.03;3.40;;;;;;;;;;5051945;28;20941;-48
2023/05/03 11:28:00;;;;;;;5.47;4.27;;;;;;;;;;5051660;28;20892;-47
2023/05/03 11:30:27;;;;;;;6.50;4.07;;;;;;;;;;5051583;28;20415;-47
2023/05/03 11:32:53;;;;;;;4.40;3.97;;;;;;;;;;5035632;28;20548;-44
2023/05/03 11:35:22;;;;;;;7.10;5.77;;;;;;;;;;5029237;28;20517;-45
2023/05/03 11:37:48;;;;;;;7.13;4.83;;;;;;;;;;5027757;28;20398;-46
2023/05/03 11:40:15;;;;;;;5.50;4.67;;;;;;;;;;5031901;28;20398;-46
2023/05/03 11:42:52;;;;;;;5.53;4.93;;;;;;;;;;5031316;28;20844;-45
2023/05/03 11:45:19;;;;;;;7.57;5.20;;;;;;;;;;5033716;28;20945;-45
2023/05/03 11:47:45;;;;;;;6.73;4.40;;;;;;;;;;5031750;28;20424;-46
2023/05/03 11:50:11;;;;;;;5.43;4.20;;;;;;;;;;5035222;28;20514;-47
2023/05/03 11:52:38;;;;;;;10.30;8.13;;;;;;;;;;5034471;28;20453;-45
2023/05/03 11:55:04;;;;;;;5.40;4.37;;;;;;;;;;5041194;28;20445;-46
2023/05/03 11:57:31;;;;;;;6.57;4.77;;;;;;;;;;5033444;28;20909;-46
2023/05/03 12:00:09;;;;;;;4.03;3.63;;;;;;;;;;5034581;28;20449;-44
2023/05/03 12:02:35;;;;;;;10.03;5.70;;;;;;;;;;5033461;28;20440;-43
2023/05/03 12:05:01;;;;;;;6.10;4.67;;;;;;;;;;5034158;28;20505;-46
2023/05/03 12:07:27;;;;;;;8.20;4.23;;;;;;;;;;5035335;28;20496;-43
2023/05/03 12:09:53;;;;;;;9.10;4.67;;;;;;;;;;5037344;28;20876;-43
2023/05/03 12:12:19;;;;;;;7.40;4.53;;;;;;;;;;5036797;28;20464;-43
2023/05/03 12:14:58;;;;;;;5.07;4.30;;;;;;;;;;5034480;28;20540;-43
2023/05/03 12:17:38;;;;;;;6.40;4.20;;;;;;;;;;5034648;28;20820;-43
2023/05/03 12:20:20;;;;;;;4.70;4.10;;;;;;;;;;5033854;28;20467;-43
2023/05/03 12:22:50;;;;;;;4.57;4.10;;;;;;;;;;5036926;28;20461;-44
2023/05/03 12:25:16;;;;;;;5.20;3.63;;;;;;;;;;5029120;28;20409;-43
2023/05/03 12:27:42;;;;;;;9.50;4.83;;;;;;;;;;5034403;28;20414;-44
2023/05/03 12:30:09;;;;;;;4.40;3.97;;;;;;;;;;5033751;28;20521;-44
2023/05/03 12:32:37;;;;;;;8.50;6.77;;;;;;;;;;5031617;28;20462;-43
2023/05/03 12:35:03;;;;;;;6.40;5.20;;;;;;;;;;5034352;28;20429;-44
2023/05/03 12:37:29;;;;;;;8.60;4.27;;;;;;;;;;5033906;28;20394;-43
2023/05/03 12:39:55;;;;;;;6.67;5.33;;;;;;;;;;5034581;28;20484;-43
2023/05/03 12:42:21;;;;;;;8.33;6.97;;;;;;;;;;5033989;28;20404;-45
2023/05/03 12:44:47;;;;;;;6.30;4.07;;;;;;;;;;5034096;28;20489;-44
2023/05/03 12:47:14;;;;;;;7.40;4.70;;;;;;;;;;5033747;28;20417;-44
2023/05/03 12:49:40;;;;;;;10.00;5.40;;;;;;;;;;5033602;28;20434;-44
2023/05/03 12:52:06;;;;;;;7.90;4.33;;;;;;;;;;5033709;28;20430;-44
2023/05/03 12:54:33;;;;;;;13.30;5.67;;;;;;;;;;5033186;28;20973;-44
2023/05/03 12:57:02;;;;;;;7.63;4.67;;;;;;;;;;5033773;28;20467;-43
2023/05/03 12:59:29;;;;;;;4.50;3.73;;;;;;;;;;5034023;28;20425;-45
2023/05/03 13:01:55;;;;;;;9.13;6.30;;;;;;;;;;5033968;28;20413;-44
2023/05/03 13:04:21;;;;;;;5.20;4.37;;;;;;;;;;5052493;28;20471;-43
2023/05/03 13:06:48;;;;;;;7.67;5.77;;;;;;;;;;5052495;28;20905;-44
2023/05/03 13:09:18;;;;;;;5.00;4.50;;;;;;;;;;5053840;28;20401;-44
2023/05/03 13:11:45;;;;;;;5.00;4.20;;;;;;;;;;5042850;28;20421;-44
2023/05/03 13:14:14;;;;;;;7.70;5.03;;;;;;;;;;5033653;28;20465;-43
2023/05/03 13:16:44;;;;;;;5.53;4.63;;;;;;;;;;5033449;28;20403;-46
2023/05/03 13:19:10;;;;;;;5.93;3.90;;;;;;;;;;5032301;28;21003;-43
2023/05/03 13:21:36;;;;;;;8.40;5.70;;;;;;;;;;5033041;28;20407;-43
2023/05/03 13:24:02;;;;;;;6.67;4.27;;;;;;;;;;5033225;28;20445;-43
2023/05/03 13:26:28;;;;;;;6.43;5.27;;;;;;;;;;5033056;28;20409;-43
2023/05/03 13:28:54;;;;;;;10.60;4.87;;;;;;;;;;5033423;28;20409;-44
2023/05/03 13:31:23;;;;;;;9.10;6.20;;;;;;;;;;5032893;28;20529;-44
2023/05/03 13:33:52;;;;;;;8.70;5.37;;;;;;;;;;5042148;28;20472;-44
2023/05/03 13:36:18;;;;;;;5.47;4.40;;;;;;;;;;5052094;28;20425;-43
2023/05/03 13:38:45;;;;;;;5.33;4.67;;;;;;;;;;5053161;28;20397;-44
2023/05/03 13:41:11;;;;;;;9.17;4.50;;;;;;;;;;5053113;28;20920;-44
2023/05/03 13:43:37;;;;;;;6.50;5.20;;;;;;;;;;5047709;28;20454;-44
2023/05/03 13:46:03;;;;;;;7.57;4.70;;;;;;;;;;5032514;28;20950;-46
2023/05/03 13:48:29;;;;;;;9.37;6.17;;;;;;;;;;5031634;28;20406;-44
2023/05/03 13:50:55;;;;;;;6.60;4.23;;;;;;;;;;5033187;28;20402;-43
2023/05/03 13:53:21;;;;;;;7.63;5.53;;;;;;;;;;5032680;28;20600;-45
2023/05/03 13:55:47;;;;;;;5.63;5.00;;;;;;;;;;5033036;28;20402;-45
2023/05/03 13:58:13;;;;;;;7.00;5.17;;;;;;;;;;5032967;28;20399;-44
2023/05/03 14:00:39;;;;;;;9.33;4.97;;;;;;;;;;5032966;28;20402;-43
2023/05/03 14:03:06;;;;;;;6.70;4.67;;;;;;;;;;5042199;28;20448;-44
2023/05/03 14:05:31;;;;;;;5.80;4.43;;;;;;;;;;5052602;28;20421;-44
2023/05/03 14:07:58;;;;;;;5.87;4.53;;;;;;;;;;5052143;28;20417;-43
2023/05/03 14:10:24;;;;;;;6.03;4.87;;;;;;;;;;5036607;28;20922;-43
2023/05/03 14:12:51;;;;;;;5.60;4.93;;;;;;;;;;5031394;28;20474;-43
2023/05/03 14:15:17;;;;;;;7.60;5.27;;;;;;;;;;5032810;28;20401;-43
2023/05/03 14:17:46;;;;;;;6.20;4.80;;;;;;;;;;5035166;28;20441;-44
2023/05/03 14:20:12;;;;;;;5.33;4.67;;;;;;;;;;5052500;28;20408;-45
2023/05/03 14:22:38;;;;;;;8.10;5.77;;;;;;;;;;5051220;28;20432;-45
2023/05/03 14:25:04;;;;;;;7.93;6.20;;;;;;;;;;5034643;28;20832;-45
2023/05/03 14:27:30;;;;;;;5.93;4.73;;;;;;;;;;5030614;28;20480;-44
2023/05/03 14:29:56;;;;;;;11.20;5.20;;;;;;;;;;5032309;28;20885;-44
2023/05/03 14:32:23;;;;;;;6.93;5.53;;;;;;;;;;5032128;28;20398;-45
2023/05/03 14:34:49;;;;;;;6.50;4.97;;;;;;;;;;5032245;28;20394;-46